sensor_id;sensor_type;location;lat;lon;timestamp;temperature;humidity
1546;DHT22;766;51.502;9.752;2023-05-07T00:01:29;11.50;99.90
1546;DHT22;766;51.502;9.752;2023-05-07T00:03:58;11.70;99.90
1546;DHT22;766;51.502;9.752;2023-05-07T00:06:27;11.90;99.90
1546;DHT22;766;51.502;9.752;2023-05-07T00:08:57;11.90;99.90
1546;DHT22;766;51.502;9.752;2023-05-07T00:11:27;11.80;99.90
1546;DHT22;766;51.502;9.752;2023-05-07T00:13:56;11.60;99.90
1546;DHT22;766;51.502;9.752;2023-05-07T00:16:24;11.60;99.90
1546;DHT22;766;51.502;9.752;2023-05-07T00:18:59;11.70;99.90
1546;DHT22;766;51.502;9.752;2023-05-07T00:21:28;11.70;99.90
1546;DHT22;766;51.502;9.752;2023-05-07T00:23:59;11.50;99.90
1546;DHT22;766;51.502;9.752;2023-05-07T00:26:27;11.50;99.90
1546;DHT22;766;51.502;9.752;2023-05-07T00:28:55;11.60;99.90
1546;DHT22;766;51.502;9.752;2023-05-07T00:31:23;11.50;99.90
1546;DHT22;766;51.502;9.752;2023-05-07T00:33:52;11.40;99.90
1546;DHT22;766;51.502;9.752;2023-05-07T00:36:21;11.40;99.90
1546;DHT22;766;51.502;9.752;2023-05-07T00:38:53;11.40;99.90
1546;DHT22;766;51.502;9.752;2023-05-07T00:41:28;11.40;99.90
1546;DHT22;766;51.502;9.752;2023-05-07T00:43:57;11.30;99.90
1546;DHT22;766;51.502;9.752;2023-05-07T00:46:30;11.30;99.90
1546;DHT22;766;51.502;9.752;2023-05-07T00:48:59;11.40;99.90
1546;DHT22;766;51.502;9.752;2023-05-07T00:51:30;11.40;99.90
1546;DHT22;766;51.502;9.752;2023-05-07T00:53:59;11.40;99.90
1546;DHT22;766;51.502;9.752;2023-05-07T00:56:29;11.50;99.90
1546;DHT22;766;51.502;9.752;2023-05-07T00:58:58;11.50;99.90
1546;DHT22;766;51.502;9.752;2023-05-07T01:01:26;11.40;99.90
1546;DHT22;766;51.502;9.752;2023-05-07T01:03:54;11.50;99.90
1546;DHT22;766;51.502;9.752;2023-05-07T01:06:24;11.50;99.90
1546;DHT22;766;51.502;9.752;2023-05-07T01:08:55;11.50;99.90
1546;DHT22;766;51.502;9.752;2023-05-07T01:11:24;11.30;99.90
1546;DHT22;766;51.502;9.752;2023-05-07T01:13:54;11.20;99.90
1546;DHT22;766;51.502;9.752;2023-05-07T01:16:23;11.20;99.90
1546;DHT22;766;51.502;9.752;2023-05-07T01:18:52;11.30;99.90
1546;DHT22;766;51.502;9.752;2023-05-07T01:21:24;11.20;99.90
1546;DHT22;766;51.502;9.752;2023-05-07T01:23:55;11.20;99.90
1546;DHT22;766;51.502;9.752;2023-05-07T01:26:26;11.20;99.90
1546;DHT22;766;51.502;9.752;2023-05-07T01:28:54;11.20;99.90
1546;DHT22;766;51.502;9.752;2023-05-07T01:31:23;11.30;99.90
1546;DHT22;766;51.502;9.752;2023-05-07T01:33:53;11.20;99.90
1546;DHT22;766;51.502;9.752;2023-05-07T01:36:22;11.20;99.90
1546;DHT22;766;51.502;9.752;2023-05-07T01:38:54;11.20;99.90
1546;DHT22;766;51.502;9.752;2023-05-07T01:41:25;11.30;99.90
1546;DHT22;766;51.502;9.752;2023-05-07T01:43:55;11.40;99.90
1546;DHT22;766;51.502;9.752;2023-05-07T01:46:26;11.60;99.90
1546;DHT22;766;51.502;9.752;2023-05-07T01:48:55;11.50;99.90
1546;DHT22;766;51.502;9.752;2023-05-07T01:51:23;11.60;99.90
1546;DHT22;766;51.502;9.752;2023-05-07T01:53:52;11.50;99.90
1546;DHT22;766;51.502;9.752;2023-05-07T01:56:23;11.50;99.90
1546;DHT22;766;51.502;9.752;2023-05-07T01:58:52;11.50;99.90
1546;DHT22;766;51.502;9.752;2023-05-07T02:01:20;11.60;99.90
1546;DHT22;766;51.502;9.752;2023-05-07T02:03:49;11.50;99.90
1546;DHT22;766;51.502;9.752;2023-05-07T02:06:17;11.40;99.90
1546;DHT22;766;51.502;9.752;2023-05-07T02:08:46;11.50;99.90
1546;DHT22;766;51.502;9.752;2023-05-07T02:11:15;11.20;99.90
1546;DHT22;766;51.502;9.752;2023-05-07T02:13:45;11.30;99.90
1546;DHT22;766;51.502;9.752;2023-05-07T02:16:13;11.30;99.90
1546;DHT22;766;51.502;9.752;2023-05-07T02:18:42;11.10;99.90
1546;DHT22;766;51.502;9.752;2023-05-07T02:21:10;11.10;99.90
1546;DHT22;766;51.502;9.752;2023-05-07T02:23:38;11.20;99.90
1546;DHT22;766;51.502;9.752;2023-05-07T02:26:07;11.40;99.90
1546;DHT22;766;51.502;9.752;2023-05-07T02:28:35;11.60;99.90
1546;DHT22;766;51.502;9.752;2023-05-07T02:31:06;11.50;99.90
1546;DHT22;766;51.502;9.752;2023-05-07T02:33:35;11.20;99.90
1546;DHT22;766;51.502;9.752;2023-05-07T02:36:07;11.30;99.90
1546;DHT22;766;51.502;9.752;2023-05-07T02:38:36;11.30;99.90
1546;DHT22;766;51.502;9.752;2023-05-07T02:41:07;11.30;99.90
1546;DHT22;766;51.502;9.752;2023-05-07T02:43:36;11.30;99.90
1546;DHT22;766;51.502;9.752;2023-05-07T02:46:07;11.20;99.90
1546;DHT22;766;51.502;9.752;2023-05-07T02:48:36;11.00;99.90
1546;DHT22;766;51.502;9.752;2023-05-07T02:51:05;10.80;99.90
1546;DHT22;766;51.502;9.752;2023-05-07T02:53:33;10.80;99.90
1546;DHT22;766;51.502;9.752;2023-05-07T02:56:02;10.90;99.90
1546;DHT22;766;51.502;9.752;2023-05-07T02:58:31;10.90;99.90
1546;DHT22;766;51.502;9.752;2023-05-07T03:00:59;10.60;99.90
1546;DHT22;766;51.502;9.752;2023-05-07T03:03:29;10.60;99.90
1546;DHT22;766;51.502;9.752;2023-05-07T03:05:58;10.60;99.90
1546;DHT22;766;51.502;9.752;2023-05-07T03:08:27;10.40;99.90
1546;DHT22;766;51.502;9.752;2023-05-07T03:10:55;10.40;99.90
1546;DHT22;766;51.502;9.752;2023-05-07T03:13:24;10.30;99.90
1546;DHT22;766;51.502;9.752;2023-05-07T03:15:53;10.10;99.90
1546;DHT22;766;51.502;9.752;2023-05-07T03:18:22;10.10;99.90
1546;DHT22;766;51.502;9.752;2023-05-07T03:20:52;10.00;99.90
1546;DHT22;766;51.502;9.752;2023-05-07T03:23:20;10.00;99.90
1546;DHT22;766;51.502;9.752;2023-05-07T03:25:51;10.00;99.90
1546;DHT22;766;51.502;9.752;2023-05-07T03:28:19;10.20;99.90
1546;DHT22;766;51.502;9.752;2023-05-07T03:30:48;10.30;99.90
1546;DHT22;766;51.502;9.752;2023-05-07T03:33:16;10.30;99.90
1546;DHT22;766;51.502;9.752;2023-05-07T03:35:45;10.10;99.90
1546;DHT22;766;51.502;9.752;2023-05-07T03:38:15;10.20;99.90
1546;DHT22;766;51.502;9.752;2023-05-07T03:40:44;10.20;99.90
1546;DHT22;766;51.502;9.752;2023-05-07T03:43:12;10.10;99.90
1546;DHT22;766;51.502;9.752;2023-05-07T03:45:42;10.10;99.90
1546;DHT22;766;51.502;9.752;2023-05-07T03:48:10;10.10;99.90
1546;DHT22;766;51.502;9.752;2023-05-07T03:50:39;10.10;99.90
1546;DHT22;766;51.502;9.752;2023-05-07T03:53:08;10.20;99.90
1546;DHT22;766;51.502;9.752;2023-05-07T03:55:38;10.30;99.90
1546;DHT22;766;51.502;9.752;2023-05-07T03:58:07;10.10;99.90
1546;DHT22;766;51.502;9.752;2023-05-07T04:00:35;10.00;99.90
1546;DHT22;766;51.502;9.752;2023-05-07T04:03:06;10.00;99.90
1546;DHT22;766;51.502;9.752;2023-05-07T04:05:34;10.10;99.90
1546;DHT22;766;51.502;9.752;2023-05-07T04:08:03;9.90;99.90
1546;DHT22;766;51.502;9.752;2023-05-07T04:10:32;10.00;99.90
1546;DHT22;766;51.502;9.752;2023-05-07T04:13:05;9.80;99.90
1546;DHT22;766;51.502;9.752;2023-05-07T04:15:33;9.90;99.90
1546;DHT22;766;51.502;9.752;2023-05-07T04:18:02;10.00;99.90
1546;DHT22;766;51.502;9.752;2023-05-07T04:20:30;9.90;99.90
1546;DHT22;766;51.502;9.752;2023-05-07T04:22:59;9.90;99.90
1546;DHT22;766;51.502;9.752;2023-05-07T04:25:27;10.00;99.90
1546;DHT22;766;51.502;9.752;2023-05-07T04:27:56;9.70;99.90
1546;DHT22;766;51.502;9.752;2023-05-07T04:30:26;9.80;99.90
1546;DHT22;766;51.502;9.752;2023-05-07T04:32:54;9.70;99.90
1546;DHT22;766;51.502;9.752;2023-05-07T04:35:23;9.70;99.90
1546;DHT22;766;51.502;9.752;2023-05-07T04:37:51;9.60;99.90
1546;DHT22;766;51.502;9.752;2023-05-07T04:40:20;9.60;99.90
1546;DHT22;766;51.502;9.752;2023-05-07T04:42:48;9.70;99.90
1546;DHT22;766;51.502;9.752;2023-05-07T04:45:16;9.70;99.90
1546;DHT22;766;51.502;9.752;2023-05-07T04:47:46;9.70;99.90
1546;DHT22;766;51.502;9.752;2023-05-07T04:50:15;9.50;99.90
1546;DHT22;766;51.502;9.752;2023-05-07T04:52:44;9.40;99.90
1546;DHT22;766;51.502;9.752;2023-05-07T04:55:13;9.50;99.90
1546;DHT22;766;51.502;9.752;2023-05-07T04:57:44;9.50;99.90
1546;DHT22;766;51.502;9.752;2023-05-07T05:00:13;9.50;99.90
1546;DHT22;766;51.502;9.752;2023-05-07T05:02:43;9.50;99.90
1546;DHT22;766;51.502;9.752;2023-05-07T05:05:13;9.50;99.90
1546;DHT22;766;51.502;9.752;2023-05-07T05:07:41;9.50;99.90
1546;DHT22;766;51.502;9.752;2023-05-07T05:10:10;9.40;99.90
1546;DHT22;766;51.502;9.752;2023-05-07T05:12:38;9.40;99.90
1546;DHT22;766;51.502;9.752;2023-05-07T05:15:11;9.50;99.90
1546;DHT22;766;51.502;9.752;2023-05-07T05:17:39;9.40;99.90
1546;DHT22;766;51.502;9.752;2023-05-07T05:20:08;9.40;99.90
1546;DHT22;766;51.502;9.752;2023-05-07T05:22:40;9.40;99.90
1546;DHT22;766;51.502;9.752;2023-05-07T05:25:10;9.50;99.90
1546;DHT22;766;51.502;9.752;2023-05-07T05:27:39;9.30;99.90
1546;DHT22;766;51.502;9.752;2023-05-07T05:30:08;9.30;99.90
1546;DHT22;766;51.502;9.752;2023-05-07T05:32:36;9.30;99.90
1546;DHT22;766;51.502;9.752;2023-05-07T05:35:06;9.50;99.90
1546;DHT22;766;51.502;9.752;2023-05-07T05:37:34;9.50;99.90
1546;DHT22;766;51.502;9.752;2023-05-07T05:40:05;9.60;99.90
1546;DHT22;766;51.502;9.752;2023-05-07T05:42:34;9.50;99.90
1546;DHT22;766;51.502;9.752;2023-05-07T05:45:03;9.50;99.90
1546;DHT22;766;51.502;9.752;2023-05-07T05:47:31;9.80;99.90
1546;DHT22;766;51.502;9.752;2023-05-07T05:50:00;9.80;99.90
1546;DHT22;766;51.502;9.752;2023-05-07T05:52:28;9.80;99.90
1546;DHT22;766;51.502;9.752;2023-05-07T05:54:57;9.70;99.90
1546;DHT22;766;51.502;9.752;2023-05-07T05:57:27;9.60;99.90
1546;DHT22;766;51.502;9.752;2023-05-07T05:59:55;9.70;99.90
1546;DHT22;766;51.502;9.752;2023-05-07T06:02:23;9.70;99.90
1546;DHT22;766;51.502;9.752;2023-05-07T06:04:52;9.80;99.90
1546;DHT22;766;51.502;9.752;2023-05-07T06:07:21;9.70;99.90
1546;DHT22;766;51.502;9.752;2023-05-07T06:09:50;9.60;99.90
1546;DHT22;766;51.502;9.752;2023-05-07T06:12:18;9.70;99.90
1546;DHT22;766;51.502;9.752;2023-05-07T06:14:48;9.70;99.90
1546;DHT22;766;51.502;9.752;2023-05-07T06:17:16;9.70;99.90
1546;DHT22;766;51.502;9.752;2023-05-07T06:19:47;9.60;99.90
1546;DHT22;766;51.502;9.752;2023-05-07T06:22:16;9.70;99.90
1546;DHT22;766;51.502;9.752;2023-05-07T06:24:44;9.60;99.90
1546;DHT22;766;51.502;9.752;2023-05-07T06:27:13;9.80;99.90
1546;DHT22;766;51.502;9.752;2023-05-07T06:29:41;9.80;99.90
1546;DHT22;766;51.502;9.752;2023-05-07T06:32:12;9.50;99.90
1546;DHT22;766;51.502;9.752;2023-05-07T06:34:42;9.70;99.90
1546;DHT22;766;51.502;9.752;2023-05-07T06:37:10;9.70;99.90
1546;DHT22;766;51.502;9.752;2023-05-07T06:39:38;9.90;99.90
1546;DHT22;766;51.502;9.752;2023-05-07T06:42:07;9.70;99.90
1546;DHT22;766;51.502;9.752;2023-05-07T06:44:35;9.80;99.90
1546;DHT22;766;51.502;9.752;2023-05-07T06:47:04;9.90;99.90
1546;DHT22;766;51.502;9.752;2023-05-07T06:49:34;9.80;99.90
1546;DHT22;766;51.502;9.752;2023-05-07T06:52:02;9.90;99.90
1546;DHT22;766;51.502;9.752;2023-05-07T06:54:31;9.90;99.90
1546;DHT22;766;51.502;9.752;2023-05-07T06:56:59;9.80;99.90
1546;DHT22;766;51.502;9.752;2023-05-07T06:59:28;9.90;99.90
1546;DHT22;766;51.502;9.752;2023-05-07T07:02:00;10.00;99.90
1546;DHT22;766;51.502;9.752;2023-05-07T07:04:29;10.10;99.90
1546;DHT22;766;51.502;9.752;2023-05-07T07:06:59;10.20;99.90
1546;DHT22;766;51.502;9.752;2023-05-07T07:09:28;10.00;99.90
1546;DHT22;766;51.502;9.752;2023-05-07T07:11:57;9.90;99.90
1546;DHT22;766;51.502;9.752;2023-05-07T07:14:26;9.90;99.90
1546;DHT22;766;51.502;9.752;2023-05-07T07:16:54;10.00;99.90
1546;DHT22;766;51.502;9.752;2023-05-07T07:19:22;10.20;99.90
1546;DHT22;766;51.502;9.752;2023-05-07T07:21:51;10.20;99.90
1546;DHT22;766;51.502;9.752;2023-05-07T07:24:20;10.10;99.90
1546;DHT22;766;51.502;9.752;2023-05-07T07:26:49;10.10;99.90
1546;DHT22;766;51.502;9.752;2023-05-07T07:29:18;10.10;99.90
1546;DHT22;766;51.502;9.752;2023-05-07T07:31:47;10.10;99.90
1546;DHT22;766;51.502;9.752;2023-05-07T07:34:16;10.00;99.90
1546;DHT22;766;51.502;9.752;2023-05-07T07:36:44;10.10;99.90
1546;DHT22;766;51.502;9.752;2023-05-07T07:39:13;10.10;99.90
1546;DHT22;766;51.502;9.752;2023-05-07T07:41:42;10.20;99.90
1546;DHT22;766;51.502;9.752;2023-05-07T07:44:11;10.10;99.90
1546;DHT22;766;51.502;9.752;2023-05-07T07:46:42;10.20;99.90
1546;DHT22;766;51.502;9.752;2023-05-07T07:49:10;10.20;99.90
1546;DHT22;766;51.502;9.752;2023-05-07T07:51:39;10.30;99.90
1546;DHT22;766;51.502;9.752;2023-05-07T07:54:07;10.30;99.90
1546;DHT22;766;51.502;9.752;2023-05-07T07:56:36;10.40;99.90
1546;DHT22;766;51.502;9.752;2023-05-07T07:59:05;10.20;99.90
1546;DHT22;766;51.502;9.752;2023-05-07T08:01:34;10.10;99.90
1546;DHT22;766;51.502;9.752;2023-05-07T08:04:07;10.40;99.90
1546;DHT22;766;51.502;9.752;2023-05-07T08:06:35;10.30;99.90
1546;DHT22;766;51.502;9.752;2023-05-07T08:09:04;10.40;99.90
1546;DHT22;766;51.502;9.752;2023-05-07T08:11:33;10.30;99.90
1546;DHT22;766;51.502;9.752;2023-05-07T08:14:01;10.20;99.90
1546;DHT22;766;51.502;9.752;2023-05-07T08:16:31;10.20;99.90
1546;DHT22;766;51.502;9.752;2023-05-07T08:19:03;10.10;99.90
1546;DHT22;766;51.502;9.752;2023-05-07T08:21:31;10.20;99.90
1546;DHT22;766;51.502;9.752;2023-05-07T08:24:00;10.20;99.90
1546;DHT22;766;51.502;9.752;2023-05-07T08:26:29;10.20;99.90
1546;DHT22;766;51.502;9.752;2023-05-07T08:28:57;10.40;99.90
1546;DHT22;766;51.502;9.752;2023-05-07T08:31:26;10.30;99.90
1546;DHT22;766;51.502;9.752;2023-05-07T08:33:57;10.40;99.90
1546;DHT22;766;51.502;9.752;2023-05-07T08:36:26;10.20;99.90
1546;DHT22;766;51.502;9.752;2023-05-07T08:38:55;10.40;99.90
1546;DHT22;766;51.502;9.752;2023-05-07T08:41:24;10.40;99.90
1546;DHT22;766;51.502;9.752;2023-05-07T08:43:52;10.40;99.90
1546;DHT22;766;51.502;9.752;2023-05-07T08:46:22;10.30;99.90
1546;DHT22;766;51.502;9.752;2023-05-07T08:48:51;10.20;99.90
1546;DHT22;766;51.502;9.752;2023-05-07T08:51:21;10.20;99.90
1546;DHT22;766;51.502;9.752;2023-05-07T08:53:50;10.40;99.90
1546;DHT22;766;51.502;9.752;2023-05-07T08:56:18;10.70;99.90
1546;DHT22;766;51.502;9.752;2023-05-07T08:58:49;10.40;99.90
1546;DHT22;766;51.502;9.752;2023-05-07T09:01:29;10.40;99.90
1546;DHT22;766;51.502;9.752;2023-05-07T09:03:57;10.50;99.90
1546;DHT22;766;51.502;9.752;2023-05-07T09:06:35;10.50;99.90
1546;DHT22;766;51.502;9.752;2023-05-07T09:09:05;10.70;99.90
1546;DHT22;766;51.502;9.752;2023-05-07T09:11:34;10.90;99.90
1546;DHT22;766;51.502;9.752;2023-05-07T09:14:02;11.10;99.90
1546;DHT22;766;51.502;9.752;2023-05-07T09:16:32;10.90;99.90
1546;DHT22;766;51.502;9.752;2023-05-07T09:19:01;10.50;99.90
1546;DHT22;766;51.502;9.752;2023-05-07T09:21:29;10.60;99.90
1546;DHT22;766;51.502;9.752;2023-05-07T09:24:00;10.70;99.90
1546;DHT22;766;51.502;9.752;2023-05-07T09:26:29;10.50;99.90
1546;DHT22;766;51.502;9.752;2023-05-07T09:29:00;10.90;99.90
1546;DHT22;766;51.502;9.752;2023-05-07T09:31:31;11.00;99.90
1546;DHT22;766;51.502;9.752;2023-05-07T09:33:59;11.10;99.90
1546;DHT22;766;51.502;9.752;2023-05-07T09:36:28;11.00;99.90
1546;DHT22;766;51.502;9.752;2023-05-07T09:39:00;10.90;99.90
1546;DHT22;766;51.502;9.752;2023-05-07T09:41:30;11.00;99.90
1546;DHT22;766;51.502;9.752;2023-05-07T09:43:59;11.00;99.90
1546;DHT22;766;51.502;9.752;2023-05-07T09:46:30;11.00;99.90
1546;DHT22;766;51.502;9.752;2023-05-07T09:49:00;11.10;99.90
1546;DHT22;766;51.502;9.752;2023-05-07T09:51:31;11.00;99.90
1546;DHT22;766;51.502;9.752;2023-05-07T09:54:04;10.90;99.90
1546;DHT22;766;51.502;9.752;2023-05-07T09:56:33;10.80;99.90
1546;DHT22;766;51.502;9.752;2023-05-07T09:59:05;10.80;99.90
1546;DHT22;766;51.502;9.752;2023-05-07T10:01:36;10.70;99.90
1546;DHT22;766;51.502;9.752;2023-05-07T10:04:05;10.80;99.90
1546;DHT22;766;51.502;9.752;2023-05-07T10:06:35;10.90;99.90
1546;DHT22;766;51.502;9.752;2023-05-07T10:09:06;10.90;99.90
1546;DHT22;766;51.502;9.752;2023-05-07T10:11:35;11.00;99.90
1546;DHT22;766;51.502;9.752;2023-05-07T10:14:04;11.10;99.90
1546;DHT22;766;51.502;9.752;2023-05-07T10:16:34;11.10;99.90
1546;DHT22;766;51.502;9.752;2023-05-07T10:19:04;11.00;99.90
1546;DHT22;766;51.502;9.752;2023-05-07T10:21:36;10.90;99.90
1546;DHT22;766;51.502;9.752;2023-05-07T10:24:09;10.80;99.90
1546;DHT22;766;51.502;9.752;2023-05-07T10:26:42;11.00;99.90
1546;DHT22;766;51.502;9.752;2023-05-07T10:29:14;11.30;99.90
1546;DHT22;766;51.502;9.752;2023-05-07T10:31:55;11.20;99.90
1546;DHT22;766;51.502;9.752;2023-05-07T10:34:29;11.30;99.90
1546;DHT22;766;51.502;9.752;2023-05-07T10:37:01;11.40;99.90
1546;DHT22;766;51.502;9.752;2023-05-07T10:39:31;11.50;99.90
1546;DHT22;766;51.502;9.752;2023-05-07T10:42:08;11.50;99.90
1546;DHT22;766;51.502;9.752;2023-05-07T10:44:36;11.50;99.90
1546;DHT22;766;51.502;9.752;2023-05-07T10:47:07;11.50;99.90
1546;DHT22;766;51.502;9.752;2023-05-07T10:49:38;11.30;99.90
1546;DHT22;766;51.502;9.752;2023-05-07T10:52:26;11.40;99.90
1546;DHT22;766;51.502;9.752;2023-05-07T10:55:20;11.10;99.90
1546;DHT22;766;51.502;9.752;2023-05-07T10:57:49;11.20;99.90
1546;DHT22;766;51.502;9.752;2023-05-07T11:00:42;11.00;99.90
1546;DHT22;766;51.502;9.752;2023-05-07T11:03:11;11.20;99.90
1546;DHT22;766;51.502;9.752;2023-05-07T11:05:42;11.00;99.90
1546;DHT22;766;51.502;9.752;2023-05-07T11:08:10;11.00;99.90
1546;DHT22;766;51.502;9.752;2023-05-07T11:10:50;11.00;99.90
1546;DHT22;766;51.502;9.752;2023-05-07T11:13:42;11.20;99.90
1546;DHT22;766;51.502;9.752;2023-05-07T11:16:18;11.00;99.90
1546;DHT22;766;51.502;9.752;2023-05-07T11:18:47;10.90;99.90
1546;DHT22;766;51.502;9.752;2023-05-07T11:21:33;11.10;99.90
1546;DHT22;766;51.502;9.752;2023-05-07T11:24:03;11.30;99.90
1546;DHT22;766;51.502;9.752;2023-05-07T11:26:42;11.40;99.90
1546;DHT22;766;51.502;9.752;2023-05-07T11:29:13;11.40;99.90
1546;DHT22;766;51.502;9.752;2023-05-07T11:31:43;11.40;99.90
1546;DHT22;766;51.502;9.752;2023-05-07T11:34:21;11.40;99.90
1546;DHT22;766;51.502;9.752;2023-05-07T11:36:51;11.30;99.90
1546;DHT22;766;51.502;9.752;2023-05-07T11:39:28;11.30;99.90
1546;DHT22;766;51.502;9.752;2023-05-07T11:41:59;11.50;99.90
1546;DHT22;766;51.502;9.752;2023-05-07T11:44:43;11.50;99.90
1546;DHT22;766;51.502;9.752;2023-05-07T11:47:17;11.40;99.90
1546;DHT22;766;51.502;9.752;2023-05-07T11:49:47;11.50;99.90
1546;DHT22;766;51.502;9.752;2023-05-07T11:52:16;11.50;99.90
1546;DHT22;766;51.502;9.752;2023-05-07T11:54:49;11.40;99.90
1546;DHT22;766;51.502;9.752;2023-05-07T11:57:19;11.80;99.90
1546;DHT22;766;51.502;9.752;2023-05-07T11:59:47;11.60;99.90
1546;DHT22;766;51.502;9.752;2023-05-07T12:02:16;11.40;99.90
1546;DHT22;766;51.502;9.752;2023-05-07T12:04:44;11.60;99.90
1546;DHT22;766;51.502;9.752;2023-05-07T12:07:14;11.80;99.90
1546;DHT22;766;51.502;9.752;2023-05-07T12:09:43;11.60;99.90
1546;DHT22;766;51.502;9.752;2023-05-07T12:12:12;11.70;99.90
1546;DHT22;766;51.502;9.752;2023-05-07T12:14:45;12.00;99.90
1546;DHT22;766;51.502;9.752;2023-05-07T12:17:14;12.10;99.90
1546;DHT22;766;51.502;9.752;2023-05-07T12:19:44;12.20;99.90
1546;DHT22;766;51.502;9.752;2023-05-07T12:22:14;12.40;99.90
1546;DHT22;766;51.502;9.752;2023-05-07T12:24:46;12.40;99.90
1546;DHT22;766;51.502;9.752;2023-05-07T12:27:15;12.30;99.90
1546;DHT22;766;51.502;9.752;2023-05-07T12:29:46;12.40;99.90
1546;DHT22;766;51.502;9.752;2023-05-07T12:32:15;12.60;99.90
1546;DHT22;766;51.502;9.752;2023-05-07T12:34:45;12.80;99.90
1546;DHT22;766;51.502;9.752;2023-05-07T12:37:13;12.90;99.90
1546;DHT22;766;51.502;9.752;2023-05-07T12:39:47;13.00;99.90
1546;DHT22;766;51.502;9.752;2023-05-07T12:42:16;13.20;99.90
1546;DHT22;766;51.502;9.752;2023-05-07T12:44:46;13.40;99.90
1546;DHT22;766;51.502;9.752;2023-05-07T12:47:15;12.90;99.90
1546;DHT22;766;51.502;9.752;2023-05-07T12:49:44;12.90;99.90
1546;DHT22;766;51.502;9.752;2023-05-07T12:52:13;12.80;99.90
1546;DHT22;766;51.502;9.752;2023-05-07T12:54:41;12.70;99.90
1546;DHT22;766;51.502;9.752;2023-05-07T12:57:10;12.70;99.90
1546;DHT22;766;51.502;9.752;2023-05-07T12:59:40;12.50;99.90
1546;DHT22;766;51.502;9.752;2023-05-07T13:02:10;12.40;99.90
1546;DHT22;766;51.502;9.752;2023-05-07T13:04:38;12.30;99.90
1546;DHT22;766;51.502;9.752;2023-05-07T13:07:07;12.20;99.90
1546;DHT22;766;51.502;9.752;2023-05-07T13:09:37;12.30;99.90
1546;DHT22;766;51.502;9.752;2023-05-07T13:12:06;12.50;99.90
1546;DHT22;766;51.502;9.752;2023-05-07T13:14:34;12.40;99.90
1546;DHT22;766;51.502;9.752;2023-05-07T13:17:04;12.70;99.90
1546;DHT22;766;51.502;9.752;2023-05-07T13:19:34;12.80;99.90
1546;DHT22;766;51.502;9.752;2023-05-07T13:22:04;12.80;99.90
1546;DHT22;766;51.502;9.752;2023-05-07T13:24:32;13.00;99.90
1546;DHT22;766;51.502;9.752;2023-05-07T13:27:01;13.20;99.90
1546;DHT22;766;51.502;9.752;2023-05-07T13:29:30;13.20;99.90
1546;DHT22;766;51.502;9.752;2023-05-07T13:31:59;13.10;99.90
1546;DHT22;766;51.502;9.752;2023-05-07T13:34:28;13.30;99.90
1546;DHT22;766;51.502;9.752;2023-05-07T13:36:58;13.40;99.90
1546;DHT22;766;51.502;9.752;2023-05-07T13:39:26;13.50;99.90
1546;DHT22;766;51.502;9.752;2023-05-07T13:41:55;13.40;99.90
1546;DHT22;766;51.502;9.752;2023-05-07T13:44:23;13.10;99.90
1546;DHT22;766;51.502;9.752;2023-05-07T13:46:51;13.10;99.90
1546;DHT22;766;51.502;9.752;2023-05-07T13:49:19;12.90;99.90
1546;DHT22;766;51.502;9.752;2023-05-07T13:51:48;12.80;99.90
1546;DHT22;766;51.502;9.752;2023-05-07T13:54:17;12.90;99.90
1546;DHT22;766;51.502;9.752;2023-05-07T13:56:45;13.10;99.90
1546;DHT22;766;51.502;9.752;2023-05-07T13:59:14;13.20;99.90
1546;DHT22;766;51.502;9.752;2023-05-07T14:01:42;13.30;99.90
1546;DHT22;766;51.502;9.752;2023-05-07T14:04:10;13.30;99.90
1546;DHT22;766;51.502;9.752;2023-05-07T14:06:39;13.10;99.90
1546;DHT22;766;51.502;9.752;2023-05-07T14:09:07;13.10;99.90
1546;DHT22;766;51.502;9.752;2023-05-07T14:11:37;13.30;99.90
1546;DHT22;766;51.502;9.752;2023-05-07T14:14:06;13.40;99.90
1546;DHT22;766;51.502;9.752;2023-05-07T14:16:34;13.30;99.90
1546;DHT22;766;51.502;9.752;2023-05-07T14:19:02;13.50;99.90
1546;DHT22;766;51.502;9.752;2023-05-07T14:21:31;13.50;99.90
1546;DHT22;766;51.502;9.752;2023-05-07T14:23:59;13.40;99.90
1546;DHT22;766;51.502;9.752;2023-05-07T14:26:28;13.50;99.90
1546;DHT22;766;51.502;9.752;2023-05-07T14:28:58;13.40;99.90
1546;DHT22;766;51.502;9.752;2023-05-07T14:31:29;13.60;99.90
1546;DHT22;766;51.502;9.752;2023-05-07T14:33:57;13.80;99.90
1546;DHT22;766;51.502;9.752;2023-05-07T14:36:26;13.60;99.90
1546;DHT22;766;51.502;9.752;2023-05-07T14:38:55;13.70;99.90
1546;DHT22;766;51.502;9.752;2023-05-07T14:41:26;13.80;99.90
1546;DHT22;766;51.502;9.752;2023-05-07T14:43:54;14.10;99.90
1546;DHT22;766;51.502;9.752;2023-05-07T14:46:24;14.10;99.90
1546;DHT22;766;51.502;9.752;2023-05-07T14:48:53;13.80;99.90
1546;DHT22;766;51.502;9.752;2023-05-07T14:51:21;13.90;99.90
1546;DHT22;766;51.502;9.752;2023-05-07T14:53:50;13.90;99.90
1546;DHT22;766;51.502;9.752;2023-05-07T14:56:19;13.70;99.90
1546;DHT22;766;51.502;9.752;2023-05-07T14:58:47;14.00;99.90
1546;DHT22;766;51.502;9.752;2023-05-07T15:01:16;13.70;99.90
1546;DHT22;766;51.502;9.752;2023-05-07T15:03:46;13.50;99.90
1546;DHT22;766;51.502;9.752;2023-05-07T15:06:14;13.50;99.90
1546;DHT22;766;51.502;9.752;2023-05-07T15:08:43;13.70;99.90
1546;DHT22;766;51.502;9.752;2023-05-07T15:11:11;13.80;99.90
1546;DHT22;766;51.502;9.752;2023-05-07T15:13:41;13.60;99.90
1546;DHT22;766;51.502;9.752;2023-05-07T15:16:09;13.50;99.90
1546;DHT22;766;51.502;9.752;2023-05-07T15:18:38;13.50;99.90
1546;DHT22;766;51.502;9.752;2023-05-07T15:21:08;13.40;99.90
1546;DHT22;766;51.502;9.752;2023-05-07T15:23:36;13.60;99.90
1546;DHT22;766;51.502;9.752;2023-05-07T15:26:04;13.50;99.90
1546;DHT22;766;51.502;9.752;2023-05-07T15:28:34;13.60;99.90
1546;DHT22;766;51.502;9.752;2023-05-07T15:31:02;13.60;99.90
1546;DHT22;766;51.502;9.752;2023-05-07T15:33:32;13.50;99.90
1546;DHT22;766;51.502;9.752;2023-05-07T15:36:00;13.50;99.90
1546;DHT22;766;51.502;9.752;2023-05-07T15:38:31;13.50;99.90
1546;DHT22;766;51.502;9.752;2023-05-07T15:40:59;13.50;99.90
1546;DHT22;766;51.502;9.752;2023-05-07T15:43:28;13.40;99.90
1546;DHT22;766;51.502;9.752;2023-05-07T15:45:56;13.20;99.90
1546;DHT22;766;51.502;9.752;2023-05-07T15:48:24;13.30;99.90
1546;DHT22;766;51.502;9.752;2023-05-07T15:50:53;13.20;99.90
1546;DHT22;766;51.502;9.752;2023-05-07T15:53:22;13.30;99.90
1546;DHT22;766;51.502;9.752;2023-05-07T15:55:52;13.30;99.90
1546;DHT22;766;51.502;9.752;2023-05-07T15:58:20;13.30;99.90
1546;DHT22;766;51.502;9.752;2023-05-07T16:00:48;13.30;99.90
1546;DHT22;766;51.502;9.752;2023-05-07T16:03:17;13.30;99.90
1546;DHT22;766;51.502;9.752;2023-05-07T16:05:48;13.30;99.90
1546;DHT22;766;51.502;9.752;2023-05-07T16:08:17;13.40;99.90
1546;DHT22;766;51.502;9.752;2023-05-07T16:10:45;13.40;99.90
1546;DHT22;766;51.502;9.752;2023-05-07T16:13:15;13.30;99.90
1546;DHT22;766;51.502;9.752;2023-05-07T16:15:45;13.40;99.90
1546;DHT22;766;51.502;9.752;2023-05-07T16:18:14;13.40;99.90
1546;DHT22;766;51.502;9.752;2023-05-07T16:20:42;13.20;99.90
1546;DHT22;766;51.502;9.752;2023-05-07T16:23:11;13.20;99.90
1546;DHT22;766;51.502;9.752;2023-05-07T16:25:39;13.10;99.90
1546;DHT22;766;51.502;9.752;2023-05-07T16:28:08;12.90;99.90
1546;DHT22;766;51.502;9.752;2023-05-07T16:30:37;13.00;99.90
1546;DHT22;766;51.502;9.752;2023-05-07T16:33:06;12.90;99.90
1546;DHT22;766;51.502;9.752;2023-05-07T16:35:35;13.00;99.90